Mayaguez, Puerto Rico
Current Conditions -  °F | °C
As of 7:50 PM on Monday 20 Oct 2014 (Local Time) from TJBQ Reporting Station
Scattered Clouds Scattered Clouds  
Wind Chill: 81°   Ceiling: Unl
Heat Index: 85°   Visibility: 10mi
Dew Point: 73°   Wind: 7mph
Humidity: 79%   Direction: 70°ENE
Pressure: 29.96"   Gusts: NA
Location:  18.26°N, 67.15°W
Report Text: TJBQ 202350Z 07006KT 10SM SCT022 SCT034 27/23 A2996 RMK LTG DSNT NW ---RWY08 ATIS Q
Loading
Personal Weather Stations






























Interactive Weather Map
Tropical Storm Tracking
New forecast layout! Learn more

10-Day Weather Forecast

Advertisements
Track Severe Weather on mobile